Time;durP1;ratioP1;P1;durP2;ratioP2;P2;SDS_P1;SDS_P2;PMS_P1;PMS_P2;Temp;Humidity;BMP_temperature;BMP_pressure;BME280_temperature;BME280_humidity;BME280_pressure;Samples;Min_cycle;Max_cycle;Signal;HPM_P1;HPM_P2
2024/03/26 00:42:10;;;;;;;6.57;4.47;;;;;;;7.03;100.00;98038.28;4873089;29;20048;-91
2024/03/26 00:54:08;;;;;;;9.13;4.25;;;;;;;7.06;100.00;98039.72;4748075;29;20141;-92
2024/03/26 01:00:48;;;;;;;7.88;4.50;;;;;;;7.02;100.00;98035.84;4742417;30;20744;-91
2024/03/26 01:09:38;;;;;;;7.20;3.08;;;;;;;7.07;100.00;98029.03;4749129;30;20055;-85
2024/03/26 01:13:12;;;;;;;4.70;2.97;;;;;;;7.06;100.00;98030.03;4834170;29;20464;-93
2024/03/26 01:25:32;;;;;;;7.25;2.40;;;;;;;7.03;100.00;98019.91;4712112;30;20189;-92
2024/03/26 01:29:45;;;;;;;3.40;2.15;;;;;;;7.05;100.00;98017.91;4687373;30;20052;-92
2024/03/26 01:33:10;;;;;;;3.22;2.13;;;;;;;7.05;100.00;98017.09;4692626;30;20046;-92
2024/03/26 01:37:20;;;;;;;;;;;;;;;;;;;;;
2024/03/26 01:55:48;;;;;;;2.13;1.75;;;;;;;6.97;100.00;98004.03;4723197;30;20057;-83
2024/03/26 01:59:18;;;;;;;3.33;1.88;;;;;;;6.95;100.00;97991.09;4735410;30;20086;-84
2024/03/26 02:01:54;;;;;;;3.90;1.80;;;;;;;6.95;100.00;97998.97;4725572;30;20045;-82
2024/03/26 02:04:57;;;;;;;;;;;;;;;;;;;;;
2024/03/26 02:08:17;;;;;;;2.45;1.50;;;;;;;6.91;100.00;97981.97;4781456;29;19925;-83
2024/03/26 02:11:51;;;;;;;2.45;1.65;;;;;;;6.91;100.00;97980.13;4857008;29;20065;-83
2024/03/26 02:18:59;;;;;;;3.42;2.33;;;;;;;6.88;100.00;97977.88;4857280;29;20060;-83
2024/03/26 02:22:34;;;;;;;;;;;;;;;;;;;;;
2024/03/26 02:59:21;;;;;;;;;;;;;;;;;;;;;
2024/03/26 03:07:08;;;;;;;5.65;2.00;;;;;;;6.79;100.00;97952.69;4802879;29;20599;-83
2024/03/26 03:10:48;;;;;;;4.43;2.50;;;;;;;6.78;100.00;97959.78;4779071;29;20051;-82
2024/03/26 03:19:01;;;;;;;4.55;2.85;;;;;;;6.74;100.00;97937.50;4702380;30;20099;-84
2024/03/26 03:21:27;;;;;;;6.53;2.65;;;;;;;6.69;100.00;97934.59;4712980;30;20057;-83
2024/03/26 03:33:14;;;;;;;;;;;;;;;;;;;;;
2024/03/26 03:50:14;;;;;;;8.68;3.05;;;;;;;6.51;100.00;97920.03;4668671;30;20136;-82
2024/03/26 03:53:43;;;;;;;7.20;2.90;;;;;;;6.51;100.00;97917.41;4655154;30;20723;-84
2024/03/26 04:21:48;;;;;;;14.07;4.95;;;;;;;6.38;100.00;97907.56;4589455;31;20054;-83
2024/03/26 04:53:37;;;;;;;6.57;3.97;;;;;;;6.25;100.00;97874.06;4793430;29;20651;-86
2024/03/26 05:10:13;;;;;;;10.40;3.30;;;;;;;6.23;100.00;97889.16;4741444;29;20694;-84
2024/03/26 05:34:35;;;;;;;7.97;3.53;;;;;;;6.18;100.00;97865.31;4783396;29;20046;-88
2024/03/26 05:37:01;;;;;;;9.13;2.67;;;;;;;6.19;100.00;97865.13;4778765;29;20069;-92
2024/03/26 05:39:27;;;;;;;7.68;2.42;;;;;;;6.17;100.00;97863.66;4835762;29;20496;-89
2024/03/26 05:41:53;;;;;;;7.53;2.53;;;;;;;6.14;100.00;97858.75;4845071;29;20136;-90
2024/03/26 05:49:22;;;;;;;7.13;2.30;;;;;;;6.16;100.00;97854.97;4831107;29;20180;-84
2024/03/26 06:14:50;;;;;;;;;;;;;;;;;;;;;
2024/03/26 06:18:58;;;;;;;;;;;;;;;;;;;;;
2024/03/26 06:40:57;;;;;;;3.13;1.40;;;;;;;6.06;100.00;97822.94;4716917;30;20052;-83
2024/03/26 06:44:55;;;;;;;4.45;1.73;;;;;;;6.08;100.00;97811.28;4747619;29;20043;-84
2024/03/26 07:23:24;;;;;;;6.78;2.33;;;;;;;6.21;100.00;97799.38;4811324;29;20400;-85
2024/03/26 07:39:15;;;;;;;9.45;4.43;;;;;;;6.33;100.00;97802.31;4776297;29;20514;-93
2024/03/26 07:42:18;;;;;;;9.77;5.15;;;;;;;6.43;100.00;97794.97;4842506;29;20203;-92
2024/03/26 07:50:47;;;;;;;;;;;;;;;;;;;;;
2024/03/26 08:24:55;;;;;;;15.45;8.63;;;;;;;6.66;100.00;97772.22;4589477;31;20052;-94
2024/03/26 08:27:51;;;;;;;18.10;9.73;;;;;;;6.75;100.00;97768.50;4580782;31;20070;-92
2024/03/26 08:30:17;;;;;;;17.20;10.68;;;;;;;6.75;100.00;97776.38;4721560;29;20052;-91
2024/03/26 08:32:52;;;;;;;19.40;8.63;;;;;;;6.82;100.00;97774.63;4835070;29;20049;-90
2024/03/26 08:35:29;;;;;;;17.98;11.57;;;;;;;6.79;100.00;97767.13;4826980;29;20033;-90
2024/03/26 08:38:33;;;;;;;20.00;12.27;;;;;;;6.90;100.00;97765.81;4852773;29;20045;-89
2024/03/26 09:00:36;;;;;;;;;;;;;;;;;;;;;
2024/03/26 09:11:34;;;;;;;26.77;15.50;;;;;;;7.05;100.00;97728.16;4728122;29;20072;-89
2024/03/26 09:19:01;;;;;;;30.95;17.73;;;;;;;7.14;100.00;97715.69;4744229;30;20521;-88
2024/03/26 09:22:02;;;;;;;27.50;15.02;;;;;;;7.16;100.00;97708.47;4731469;29;20597;-81
2024/03/26 09:25:28;;;;;;;31.30;16.50;;;;;;;7.18;100.00;97695.94;4758733;30;20044;-81
2024/03/26 09:27:58;;;;;;;24.75;15.93;;;;;;;7.10;100.00;97681.16;4793049;29;20049;-81
2024/03/26 09:31:25;;;;;;;;;;;;;;;;;;;;;
2024/03/26 09:34:34;;;;;;;16.88;10.20;;;;;;;7.13;100.00;97685.19;4850884;29;20132;-81
2024/03/26 09:37:03;;;;;;;26.20;11.73;;;;;;;7.11;100.00;97700.31;4828079;29;20135;-79
2024/03/26 09:39:29;;;;;;;24.52;13.40;;;;;;;7.22;100.00;97689.31;4836239;29;20045;-80
2024/03/26 09:41:58;;;;;;;20.35;12.43;;;;;;;7.27;100.00;97691.34;4840902;29;20452;-81
2024/03/26 09:44:25;;;;;;;26.70;13.48;;;;;;;7.31;100.00;97695.25;4821997;29;20048;-79
2024/03/26 09:46:55;;;;;;;23.27;12.13;;;;;;;7.19;100.00;97684.44;4828347;29;20090;-79
2024/03/26 09:49:23;;;;;;;21.85;11.43;;;;;;;7.27;100.00;97689.53;4814906;29;20140;-82
2024/03/26 09:51:54;;;;;;;26.75;12.48;;;;;;;7.32;100.00;97687.16;4840038;29;20073;-82
2024/03/26 09:54:28;;;;;;;19.75;10.75;;;;;;;7.24;100.00;97683.84;4810396;29;20166;-80
2024/03/26 09:57:06;;;;;;;19.55;8.15;;;;;;;7.11;100.00;97671.44;4832693;29;20123;-81
2024/03/26 09:59:38;;;;;;;25.15;10.18;;;;;;;7.04;100.00;97674.03;4827655;29;20037;-82
2024/03/26 10:02:07;;;;;;;21.42;10.18;;;;;;;7.08;100.00;97675.25;4810683;29;20076;-81
2024/03/26 10:04:33;;;;;;;17.85;10.80;;;;;;;7.15;100.00;97681.38;4826267;29;20080;-80
2024/03/26 10:07:00;;;;;;;17.10;10.52;;;;;;;7.15;100.00;97676.09;4847432;29;20128;-81
2024/03/26 10:09:39;;;;;;;13.68;8.70;;;;;;;7.12;100.00;97667.81;4834840;29;20117;-81
2024/03/26 10:12:27;;;;;;;17.45;9.95;;;;;;;7.28;100.00;97672.78;4851371;29;20140;-81
2024/03/26 10:15:08;;;;;;;18.35;9.02;;;;;;;7.13;100.00;97664.19;4835800;29;20096;-83
2024/03/26 10:18:06;;;;;;;13.32;6.75;;;;;;;7.00;100.00;97660.47;4804390;29;20041;-82
2024/03/26 10:20:58;;;;;;;17.13;8.48;;;;;;;6.98;100.00;97659.00;4823110;29;20690;-80
2024/03/26 10:23:54;;;;;;;15.25;7.63;;;;;;;7.12;100.00;97644.19;4814352;29;20053;-81
2024/03/26 10:26:21;;;;;;;21.33;10.48;;;;;;;7.38;100.00;97647.97;4831860;29;20144;-80
2024/03/26 10:28:49;;;;;;;28.88;12.77;;;;;;;7.55;100.00;97645.84;4838090;29;20037;-81
2024/03/26 10:31:23;;;;;;;19.85;10.15;;;;;;;7.69;100.00;97647.53;4869969;29;20083;-81
2024/03/26 10:33:57;;;;;;;27.85;14.52;;;;;;;7.80;100.00;97629.59;4854094;29;20037;-83
2024/03/26 10:39:28;;;;;;;36.38;16.48;;;;;;;8.01;100.00;97620.75;4839707;29;20527;-81
2024/03/26 10:42:00;;;;;;;29.25;17.35;;;;;;;8.01;100.00;97625.22;4860895;29;20044;-81
2024/03/26 10:44:33;;;;;;;32.85;17.92;;;;;;;8.03;100.00;97617.91;4871338;29;20136;-80
2024/03/26 10:46:59;;;;;;;24.98;15.77;;;;;;;7.98;100.00;97613.25;4851125;29;20119;-80
2024/03/26 10:49:29;;;;;;;27.08;12.55;;;;;;;7.97;100.00;97616.91;4858937;29;20121;-80
2024/03/26 10:51:57;;;;;;;34.60;15.73;;;;;;;7.94;100.00;97612.84;4872112;29;20492;-80
2024/03/26 10:54:26;;;;;;;23.45;13.23;;;;;;;7.98;100.00;97608.00;4850225;29;20071;-80
2024/03/26 10:57:04;;;;;;;24.70;13.85;;;;;;;7.98;100.00;97617.72;4841646;29;20033;-82
2024/03/26 10:59:37;;;;;;;28.35;13.45;;;;;;;8.00;100.00;97616.50;4855862;29;20097;-81
2024/03/26 11:02:50;;;;;;;18.40;7.10;;;;;;;7.70;100.00;97595.75;4836403;29;20037;-80
2024/03/26 11:05:16;;;;;;;21.33;11.55;;;;;;;7.98;100.00;97591.41;4851629;29;20044;-80
2024/03/26 11:07:45;;;;;;;27.60;12.35;;;;;;;8.11;100.00;97594.06;4840381;29;20044;-81
2024/03/26 11:10:18;;;;;;;17.40;9.50;;;;;;;8.27;100.00;97592.06;4838533;29;20044;-80
2024/03/26 11:12:53;;;;;;;21.45;9.43;;;;;;;8.30;100.00;97581.97;4868350;29;20033;-81
2024/03/26 11:15:36;;;;;;;14.50;8.70;;;;;;;8.45;100.00;97575.69;4858338;29;20033;-81
2024/03/26 11:18:11;;;;;;;20.40;9.98;;;;;;;8.54;100.00;97563.13;4877547;29;20044;-81
2024/03/26 11:20:43;;;;;;;9.38;5.25;;;;;;;8.30;100.00;97557.44;4863932;29;20432;-80
2024/03/26 11:23:12;;;;;;;10.48;5.85;;;;;;;8.52;100.00;97554.66;4840747;29;20032;-81
2024/03/26 11:25:38;;;;;;;14.43;6.40;;;;;;;8.62;100.00;97544.53;4860694;29;20064;-80
2024/03/26 11:28:17;;;;;;;16.02;6.65;;;;;;;8.72;100.00;97541.50;4852498;29;20426;-81
2024/03/26 11:30:53;;;;;;;14.20;5.78;;;;;;;8.51;100.00;97532.75;4845805;29;20025;-80
2024/03/26 11:33:26;;;;;;;7.28;4.45;;;;;;;8.62;100.00;97539.28;4843693;29;20033;-82
2024/03/26 11:35:55;;;;;;;11.35;5.43;;;;;;;8.46;100.00;97527.28;4828119;29;20037;-80
2024/03/26 11:38:27;;;;;;;7.70;4.60;;;;;;;8.60;100.00;97522.84;4840114;29;20056;-80
2024/03/26 11:41:09;;;;;;;10.20;6.05;;;;;;;8.78;100.00;97516.16;4842830;29;20155;-81
2024/03/26 11:43:56;;;;;;;8.13;4.15;;;;;;;8.84;100.00;97520.59;4847754;29;20100;-80
2024/03/26 11:46:23;;;;;;;7.82;3.78;;;;;;;9.00;100.00;97521.19;4859518;29;20105;-83
2024/03/26 11:48:56;;;;;;;9.20;4.22;;;;;;;8.80;100.00;97514.13;4840963;29;20109;-81
2024/03/26 11:51:22;;;;;;;12.02;4.88;;;;;;;8.84;100.00;97517.97;4857286;29;20500;-81
2024/03/26 11:53:48;;;;;;;6.18;4.30;;;;;;;8.66;100.00;97502.81;4856082;29;20032;-81
2024/03/26 11:56:16;;;;;;;10.23;4.82;;;;;;;8.72;100.00;97498.53;4838000;29;20040;-80
2024/03/26 11:58:44;;;;;;;9.65;5.35;;;;;;;8.87;100.00;97496.47;4857390;29;20508;-82
2024/03/26 12:01:20;;;;;;;7.90;4.15;;;;;;;8.62;100.00;97498.97;4868071;29;20049;-79
2024/03/26 12:03:58;;;;;;;7.60;3.72;;;;;;;8.38;100.00;97485.38;4822970;29;20088;-83
2024/03/26 12:06:26;;;;;;;10.75;4.85;;;;;;;8.45;100.00;97491.47;4851423;29;20064;-84
2024/03/26 12:08:59;;;;;;;5.03;2.97;;;;;;;8.21;100.00;97485.81;4849331;29;20128;-81
2024/03/26 12:11:28;;;;;;;5.93;3.75;;;;;;;8.17;100.00;97487.22;4855656;29;20077;-82
2024/03/26 12:14:26;;;;;;;9.40;5.32;;;;;;;8.15;100.00;97483.97;4837560;29;20510;-89
2024/03/26 12:17:29;;;;;;;6.43;4.30;;;;;;;8.27;100.00;97481.53;4825336;29;20042;-81
2024/03/26 12:20:13;;;;;;;10.00;4.72;;;;;;;8.19;100.00;97477.28;4844689;29;20059;-87
2024/03/26 12:22:56;;;;;;;7.40;4.78;;;;;;;8.09;100.00;97463.75;4852983;29;20123;-88
2024/03/26 12:26:07;;;;;;;9.80;4.93;;;;;;;8.26;100.00;97472.03;4856277;29;20128;-87
2024/03/26 12:28:59;;;;;;;9.82;3.97;;;;;;;8.31;100.00;97457.25;4840368;29;20056;-83
2024/03/26 12:31:28;;;;;;;11.57;5.50;;;;;;;8.39;100.00;97450.16;4858145;29;20508;-87
2024/03/26 12:34:21;;;;;;;9.45;4.22;;;;;;;8.31;100.00;97445.94;4828439;29;20081;-88
2024/03/26 12:37:46;;;;;;;10.10;4.40;;;;;;;8.42;100.00;97440.06;4840249;29;20045;-82
2024/03/26 12:40:12;;;;;;;8.38;4.45;;;;;;;8.23;100.00;97431.16;4830411;29;20037;-84
2024/03/26 12:42:41;;;;;;;10.45;5.60;;;;;;;8.22;100.00;97429.53;4818607;29;20318;-83
2024/03/26 12:45:07;;;;;;;1.65;1.42;;;;;;;8.04;100.00;97430.94;4836549;29;20041;-81
2024/03/26 12:47:42;;;;;;;10.35;4.40;;;;;;;8.01;100.00;97431.34;4838837;29;20037;-81
2024/03/26 12:50:50;;;;;;;;;;;;;;;;;;;;;
2024/03/26 12:54:04;;;;;;;5.95;3.75;;;;;;;7.95;100.00;97429.53;4861750;29;20132;-83
2024/03/26 12:57:08;;;;;;;8.93;4.57;;;;;;;7.99;100.00;97425.50;4856871;29;20037;-81
2024/03/26 13:09:04;;;;;;;8.55;5.18;;;;;;;8.09;100.00;97397.97;4872574;29;20044;-89
2024/03/26 13:22:09;;;;;;;;;;;;;;;;;;;;;
2024/03/26 13:25:21;;;;;;;;;;;;;;;;;;;;;
2024/03/26 13:32:36;;;;;;;8.38;5.78;;;;;;;7.66;100.00;97364.00;4779407;29;20527;-92
2024/03/26 13:35:44;;;;;;;8.32;5.45;;;;;;;7.75;100.00;97367.25;4766969;29;20058;-91
2024/03/26 13:41:54;;;;;;;13.63;6.45;;;;;;;7.81;100.00;97358.56;4808723;29;20052;-92
2024/03/26 13:44:23;;;;;;;9.98;5.43;;;;;;;7.54;100.00;97353.28;4830747;29;20456;-91
2024/03/26 13:46:52;;;;;;;5.00;2.67;;;;;;;7.59;100.00;97346.59;4836715;29;20099;-88
2024/03/26 13:49:19;;;;;;;4.63;2.05;;;;;;;7.51;100.00;97334.47;4871350;29;20040;-89
2024/03/26 13:52:06;;;;;;;5.15;2.50;;;;;;;7.87;100.00;97324.56;4838476;29;20042;-89
2024/03/26 13:55:42;;;;;;;4.15;2.17;;;;;;;8.11;100.00;97319.66;4844785;29;20578;-81
2024/03/26 13:58:58;;;;;;;4.32;1.92;;;;;;;8.44;100.00;97308.25;4812141;29;20067;-83
2024/03/26 14:01:54;;;;;;;3.72;2.58;;;;;;;8.65;100.00;97290.53;4840259;29;20051;-81
2024/03/26 14:04:56;;;;;;;10.70;4.50;;;;;;;8.91;100.00;97279.06;4855054;29;20564;-81
2024/03/26 14:07:31;;;;;;;6.95;4.70;;;;;;;8.81;100.00;97276.91;4872435;29;20473;-81
2024/03/26 14:09:58;;;;;;;7.70;3.97;;;;;;;8.92;100.00;97269.31;4823358;29;20170;-81
2024/03/26 14:13:24;;;;;;;;;;;;;;;;;;;;;
2024/03/26 14:15:54;;;;;;;5.03;2.88;;;;;;;8.69;100.00;97265.44;4855561;29;20064;-84
2024/03/26 14:18:23;;;;;;;5.95;3.00;;;;;;;8.68;100.00;97259.34;4862692;29;20128;-81
2024/03/26 14:21:01;;;;;;;4.13;2.05;;;;;;;8.69;100.00;97263.56;4877447;29;20120;-82
2024/03/26 14:36:27;;;;;;;3.95;1.60;;;;;;;8.85;100.00;97215.91;4767609;30;20205;-80
2024/03/26 14:47:55;;;;;;;1.52;1.00;;;;;;;9.17;100.00;97194.78;4763787;30;20113;-81
2024/03/26 14:58:22;;;;;;;1.27;0.30;;;;;;;9.86;100.00;97164.09;4789652;29;20524;-79
2024/03/26 15:01:03;;;;;;;0.15;0.15;;;;;;;9.87;100.00;97169.16;4799710;29;20087;-82
2024/03/26 15:03:31;;;;;;;1.77;0.20;;;;;;;10.12;100.00;97156.88;4806139;29;20064;-80
2024/03/26 15:06:05;;;;;;;0.20;0.20;;;;;;;10.03;100.00;97148.47;4803943;29;20041;-81
2024/03/26 15:09:15;;;;;;;0.10;0.10;;;;;;;10.21;100.00;97147.59;4832326;29;21021;-80
2024/03/26 15:12:02;;;;;;;0.75;0.30;;;;;;;10.15;100.00;97140.59;4794205;29;20844;-81
2024/03/26 15:15:29;;;;;;;2.85;0.30;;;;;;;10.01;100.00;97129.41;4802306;29;20046;-82
2024/03/26 15:18:57;;;;;;;1.35;0.20;;;;;;;9.91;100.00;97112.28;4794856;29;20081;-82
2024/03/26 15:22:15;;;;;;;0.77;0.20;;;;;;;9.91;100.00;97107.00;4820380;29;20044;-82
2024/03/26 15:25:09;;;;;;;1.02;0.38;;;;;;;10.01;100.00;97111.75;4854895;29;20037;-79
2024/03/26 15:34:10;;;;;;;0.25;0.05;;;;;;;9.49;100.00;97075.25;4855466;29;20078;-80
2024/03/26 15:36:36;;;;;;;0.30;0.30;;;;;;;9.45;100.00;97093.34;4840139;29;20095;-79
2024/03/26 15:39:02;;;;;;;0.85;0.20;;;;;;;9.58;100.00;97089.75;4839606;29;20048;-79
2024/03/26 15:41:27;;;;;;;0.28;0.28;;;;;;;9.61;100.00;97075.31;4854367;29;20781;-80
2024/03/26 15:43:53;;;;;;;1.17;0.22;;;;;;;9.74;100.00;97064.63;4839300;29;20037;-79
2024/03/26 15:46:20;;;;;;;1.13;0.28;;;;;;;9.80;100.00;97070.81;4851606;29;20044;-80
2024/03/26 15:48:46;;;;;;;1.20;0.30;;;;;;;9.71;100.00;97058.97;4839941;29;20040;-80
2024/03/26 15:51:13;;;;;;;0.57;0.25;;;;;;;9.79;100.00;97048.13;4840435;29;20635;-78
2024/03/26 15:53:58;;;;;;;0.30;0.30;;;;;;;9.74;100.00;97061.97;4853388;29;20070;-78
2024/03/26 15:56:43;;;;;;;0.85;0.35;;;;;;;9.55;100.00;97059.38;4856514;29;20081;-79
2024/03/26 15:59:43;;;;;;;0.35;0.32;;;;;;;9.27;100.00;97055.41;4835006;29;20136;-77
2024/03/26 16:02:25;;;;;;;0.88;0.32;;;;;;;9.13;100.00;97060.03;4865430;29;20274;-78
2024/03/26 16:04:58;;;;;;;0.60;0.40;;;;;;;9.25;100.00;97051.41;4871428;29;20976;-81
2024/03/26 16:07:24;;;;;;;0.82;0.40;;;;;;;9.10;100.00;97044.66;4839600;29;20091;-81
2024/03/26 16:09:59;;;;;;;1.92;0.38;;;;;;;9.24;100.00;97047.13;4839973;29;20495;-79
2024/03/26 16:12:52;;;;;;;0.63;0.40;;;;;;;9.31;100.00;97055.78;4845339;29;20181;-78
2024/03/26 16:15:19;;;;;;;0.38;0.20;;;;;;;9.17;100.00;97063.03;4868851;29;20169;-81
2024/03/26 16:17:45;;;;;;;0.20;0.20;;;;;;;8.86;100.00;97062.13;4822758;29;20045;-79
2024/03/26 16:20:12;;;;;;;0.17;0.17;;;;;;;8.56;100.00;97058.34;4854644;29;20037;-86
2024/03/26 16:22:38;;;;;;;0.20;0.20;;;;;;;8.30;100.00;97058.28;4850379;29;20051;-88
2024/03/26 16:25:05;;;;;;;0.60;0.20;;;;;;;8.21;100.00;97053.50;4859945;29;20453;-87
2024/03/26 16:27:34;;;;;;;0.20;0.20;;;;;;;8.12;100.00;97052.97;4844218;29;20531;-88
2024/03/26 16:30:01;;;;;;;0.13;0.10;;;;;;;8.11;100.00;97040.81;4862171;29;20043;-89
2024/03/26 16:32:27;;;;;;;0.52;0.10;;;;;;;8.14;100.00;97030.69;4848117;29;20040;-88
2024/03/26 16:34:56;;;;;;;0.38;0.30;;;;;;;8.19;100.00;97024.78;4865336;29;20100;-87
2024/03/26 16:37:23;;;;;;;0.85;0.40;;;;;;;8.18;100.00;97016.09;4863941;29;20041;-87
2024/03/26 16:39:50;;;;;;;0.40;0.40;;;;;;;8.19;100.00;97016.88;4849886;29;20036;-92
2024/03/26 16:42:16;;;;;;;1.80;0.50;;;;;;;8.24;100.00;97003.91;4840038;29;20048;-87
2024/03/26 16:44:43;;;;;;;0.52;0.38;;;;;;;8.29;100.00;97008.50;4837031;29;20111;-87
2024/03/26 16:47:08;;;;;;;2.55;1.25;;;;;;;8.33;100.00;97007.06;4832697;29;20119;-87
2024/03/26 16:49:34;;;;;;;6.00;3.40;;;;;;;8.32;100.00;96995.75;4835319;29;20037;-87
2024/03/26 16:52:00;;;;;;;5.90;2.67;;;;;;;8.34;100.00;96992.91;4841860;29;20492;-87
2024/03/26 16:54:27;;;;;;;5.18;1.70;;;;;;;8.44;100.00;96995.84;4867951;29;20109;-88
2024/03/26 16:56:53;;;;;;;1.38;0.30;;;;;;;8.37;100.00;96979.31;4830294;29;20029;-85
2024/03/26 16:59:18;;;;;;;0.55;0.30;;;;;;;8.42;100.00;96983.91;4840720;29;20112;-86
2024/03/26 17:01:44;;;;;;;0.28;0.28;;;;;;;8.42;100.00;96979.47;4824971;29;20119;-87
2024/03/26 17:04:10;;;;;;;1.05;0.30;;;;;;;8.36;100.00;96972.41;4841382;29;20039;-85
2024/03/26 17:06:58;;;;;;;0.20;0.10;;;;;;;8.24;100.00;96976.78;4856456;29;20072;-85
2024/03/26 17:13:14;;;;;;;0.55;0.10;;;;;;;8.25;100.00;96960.00;4831196;29;20044;-85
2024/03/26 17:15:42;;;;;;;0.63;0.20;;;;;;;8.24;100.00;96974.97;4842496;29;20055;-85
2024/03/26 17:18:11;;;;;;;0.20;0.10;;;;;;;8.27;100.00;96966.63;4834081;29;20547;-85
2024/03/26 17:21:17;;;;;;;0.10;0.10;;;;;;;8.31;100.00;96973.06;4825930;29;20048;-78
2024/03/26 17:23:51;;;;;;;0.73;0.30;;;;;;;8.31;100.00;96967.81;4828234;29;20128;-79
2024/03/26 17:26:20;;;;;;;0.95;0.20;;;;;;;8.16;100.00;96948.91;4860693;29;20037;-80
2024/03/26 17:28:46;;;;;;;0.32;0.20;;;;;;;8.03;100.00;96961.16;4858948;29;20033;-79
2024/03/26 17:31:13;;;;;;;0.60;0.30;;;;;;;7.96;100.00;96956.97;4856678;29;20053;-79
2024/03/26 17:33:44;;;;;;;1.48;0.30;;;;;;;7.87;100.00;96953.81;4846037;29;20124;-79
2024/03/26 17:36:10;;;;;;;2.42;0.32;;;;;;;7.94;100.00;96954.56;4860773;29;20032;-79
2024/03/26 17:38:36;;;;;;;0.60;0.22;;;;;;;8.01;100.00;96950.03;4842093;29;20040;-79
2024/03/26 17:41:02;;;;;;;0.43;0.20;;;;;;;8.00;100.00;96951.06;4827850;29;20104;-79
2024/03/26 17:43:28;;;;;;;2.75;0.70;;;;;;;7.96;100.00;96946.44;4859496;29;20041;-79
2024/03/26 17:45:56;;;;;;;0.52;0.20;;;;;;;7.81;100.00;96942.31;4842385;29;20033;-78
2024/03/26 17:48:22;;;;;;;0.65;0.30;;;;;;;7.86;100.00;96945.09;4839400;29;20496;-79
2024/03/26 17:50:58;;;;;;;;;;;;;;;7.74;100.00;96933.66;4852386;29;20061;-78
2024/03/26 17:53:29;;;;;;;1.30;0.38;;;;;;;7.76;100.00;96923.72;4861512;29;19919;-78
2024/03/26 17:56:15;;;;;;;5.10;2.38;;;;;;;7.69;100.00;96921.16;4851651;29;20057;-78
2024/03/26 17:58:40;;;;;;;9.50;2.38;;;;;;;7.63;100.00;96914.13;4842353;29;20056;-79
2024/03/26 18:01:08;;;;;;;2.60;1.00;;;;;;;7.65;100.00;96915.53;4856216;29;20048;-78
2024/03/26 18:03:34;;;;;;;4.13;1.08;;;;;;;7.64;100.00;96919.19;4856478;29;20040;-78
2024/03/26 18:05:59;;;;;;;1.42;0.80;;;;;;;7.67;100.00;96907.44;4861251;29;20036;-79
2024/03/26 18:08:26;;;;;;;1.92;0.70;;;;;;;7.63;100.00;96899.16;4856720;29;20127;-78
2024/03/26 18:10:57;;;;;;;4.18;0.90;;;;;;;7.66;100.00;96893.47;4846701;29;20120;-78
2024/03/26 18:13:26;;;;;;;2.30;0.50;;;;;;;7.63;100.00;96888.63;4845417;29;20033;-77
2024/03/26 18:15:53;;;;;;;2.42;0.60;;;;;;;7.65;100.00;96881.34;4855682;29;20132;-78
2024/03/26 18:18:19;;;;;;;2.90;0.70;;;;;;;7.56;100.00;96878.16;4838779;29;20036;-77
2024/03/26 18:20:57;;;;;;;3.15;0.90;;;;;;;7.60;100.00;96872.50;4856002;29;20036;-78
2024/03/26 18:23:34;;;;;;;5.60;1.05;;;;;;;7.50;100.00;96865.09;4872095;29;20048;-79
2024/03/26 18:26:06;;;;;;;6.47;1.63;;;;;;;7.50;100.00;96865.88;4829037;29;20400;-79
2024/03/26 18:28:33;;;;;;;6.18;1.88;;;;;;;7.44;100.00;96864.09;4857400;29;20135;-79
2024/03/26 18:31:09;;;;;;;3.67;1.40;;;;;;;7.34;100.00;96855.91;4839861;29;20555;-79
2024/03/26 18:33:35;;;;;;;3.38;1.48;;;;;;;7.25;100.00;96853.53;4870397;29;20037;-80
2024/03/26 18:36:55;;;;;;;3.97;0.98;;;;;;;7.28;100.00;96849.66;4856703;29;20559;-81
2024/03/26 18:44:17;;;;;;;4.22;0.65;;;;;;;6.94;100.00;96855.91;4788532;29;20115;-84
2024/03/26 18:51:02;;;;;;;3.72;1.05;;;;;;;6.89;100.00;96840.00;4765816;29;20069;-80
2024/03/26 18:53:35;;;;;;;1.92;0.50;;;;;;;7.05;100.00;96828.22;4838651;29;20048;-80
2024/03/26 18:56:04;;;;;;;5.78;1.00;;;;;;;7.04;100.00;96815.28;4836171;29;20073;-80
2024/03/26 18:58:41;;;;;;;1.23;0.40;;;;;;;7.00;100.00;96816.72;4840538;29;20128;-84
2024/03/26 19:01:42;;;;;;;2.78;0.60;;;;;;;7.03;100.00;96813.66;4842553;29;20428;-80
2024/03/26 19:04:22;;;;;;;;;;;;;;;;;;;;;
2024/03/26 19:07:08;;;;;;;3.05;0.40;;;;;;;6.89;100.00;96797.19;4836249;29;20108;-81
2024/03/26 19:28:07;;;;;;;5.95;1.30;;;;;;;6.48;100.00;96771.16;4598837;31;20055;-81
2024/03/26 19:51:44;;;;;;;3.13;0.73;;;;;;;6.33;100.00;96748.63;4800255;29;20051;-91
2024/03/26 19:58:19;;;;;;;0.25;0.13;;;;;;;6.10;100.00;96737.84;4806308;29;20026;-90
2024/03/26 20:13:22;;;;;;;1.95;0.35;;;;;;;6.23;100.00;96695.81;4855482;29;20048;-89
2024/03/26 20:16:03;;;;;;;0.30;0.30;;;;;;;6.15;100.00;96682.94;4827475;29;20039;-92
2024/03/26 20:24:07;;;;;;;;;;;;;;;;;;;;;
2024/03/26 20:56:31;;;;;;;1.92;0.52;;;;;;;6.11;100.00;96597.84;4800463;29;20053;-91
2024/03/26 21:00:12;;;;;;;2.47;0.57;;;;;;;6.03;100.00;96591.00;4781713;29;20062;-88
2024/03/26 21:19:06;;;;;;;4.78;0.38;;;;;;;6.04;100.00;96553.28;4852870;29;20041;-85
2024/03/26 21:21:35;;;;;;;0.47;0.40;;;;;;;6.08;100.00;96546.66;4821561;29;20038;-84
2024/03/26 21:24:07;;;;;;;4.22;0.90;;;;;;;6.05;100.00;96529.50;4846646;29;20055;-85
2024/03/26 21:26:39;;;;;;;3.03;0.80;;;;;;;6.11;100.00;96533.13;4828939;29;20033;-86
2024/03/26 21:29:06;;;;;;;0.93;0.43;;;;;;;6.07;100.00;96524.88;4813931;29;20064;-86
2024/03/26 21:31:34;;;;;;;1.10;0.50;;;;;;;6.13;100.00;96519.78;4826950;29;20057;-86
2024/03/26 21:34:21;;;;;;;0.75;0.47;;;;;;;6.10;100.00;96522.84;4852364;29;20044;-86
2024/03/26 21:36:53;;;;;;;2.70;0.45;;;;;;;6.12;100.00;96516.38;4843658;29;20041;-86
2024/03/26 21:39:19;;;;;;;1.65;0.38;;;;;;;6.17;100.00;96513.91;4838055;29;20052;-93
2024/03/26 21:41:45;;;;;;;2.58;0.50;;;;;;;6.19;100.00;96513.69;4820331;29;20612;-90
2024/03/26 21:44:22;;;;;;;0.60;0.30;;;;;;;6.14;100.00;96501.22;4825889;29;20568;-90
2024/03/26 21:46:48;;;;;;;2.42;0.30;;;;;;;6.24;100.00;96503.38;4826611;29;20041;-91
2024/03/26 21:56:58;;;;;;;6.15;1.10;;;;;;;6.32;100.00;96478.69;4830060;29;20041;-90
2024/03/26 21:59:25;;;;;;;4.97;0.70;;;;;;;6.37;100.00;96485.94;4859795;29;20132;-84
2024/03/26 22:01:51;;;;;;;2.78;0.50;;;;;;;6.35;100.00;96472.22;4868364;29;20093;-86
2024/03/26 22:04:23;;;;;;;2.95;0.70;;;;;;;6.31;100.00;96462.16;4842273;29;20056;-87
2024/03/26 22:08:01;;;;;;;5.13;0.65;;;;;;;6.43;100.00;96453.59;4840121;29;20045;-86
2024/03/26 22:14:21;;;;;;;2.50;0.40;;;;;;;6.33;100.00;96426.03;4832596;29;20045;-87
2024/03/26 22:17:26;;;;;;;1.48;0.63;;;;;;;6.34;100.00;96424.19;4827983;29;20049;-87
2024/03/26 22:19:52;;;;;;;1.52;0.43;;;;;;;6.41;100.00;96421.50;4809995;29;20044;-92
2024/03/26 22:22:58;;;;;;;3.35;0.52;;;;;;;6.51;100.00;96424.44;4822018;29;20128;-93
2024/03/26 22:25:27;;;;;;;1.15;0.47;;;;;;;6.47;100.00;96412.78;4824948;29;20060;-92
2024/03/26 22:27:56;;;;;;;2.17;0.50;;;;;;;6.53;100.00;96404.03;4818178;29;20106;-91
2024/03/26 22:30:50;;;;;;;3.60;0.50;;;;;;;6.56;100.00;96402.81;4811365;29;20045;-86
2024/03/26 22:33:20;;;;;;;1.48;0.50;;;;;;;6.52;100.00;96399.00;4826832;29;20046;-88
2024/03/26 22:35:48;;;;;;;3.35;0.82;;;;;;;6.57;100.00;96392.09;4842075;29;20029;-83
2024/03/26 22:38:18;;;;;;;3.08;0.40;;;;;;;6.50;100.00;96383.47;4809424;29;20307;-91
2024/03/26 22:40:57;;;;;;;5.63;0.40;;;;;;;6.57;100.00;96378.97;4806809;29;20042;-86
2024/03/26 22:43:32;;;;;;;2.38;0.40;;;;;;;6.49;100.00;96376.63;4819457;29;20030;-86
2024/03/26 22:46:11;;;;;;;3.78;0.80;;;;;;;6.45;100.00;96375.44;4822138;29;20041;-86
2024/03/26 22:48:40;;;;;;;5.07;0.60;;;;;;;6.38;100.00;96372.94;4799856;29;20046;-88
2024/03/26 22:51:06;;;;;;;3.03;0.40;;;;;;;6.49;100.00;96363.53;4810631;29;20481;-88
2024/03/26 22:53:32;;;;;;;8.38;0.80;;;;;;;6.54;100.00;96366.28;4803202;29;20089;-86
2024/03/26 22:56:02;;;;;;;6.05;0.60;;;;;;;6.61;100.00;96354.91;4827726;29;20033;-87
2024/03/26 22:58:30;;;;;;;4.57;0.60;;;;;;;6.63;100.00;96360.72;4796849;29;20037;-85
2024/03/26 23:01:16;;;;;;;4.47;0.40;;;;;;;6.60;100.00;96350.69;4852581;29;20046;-86
2024/03/26 23:03:43;;;;;;;4.15;0.47;;;;;;;6.64;100.00;96359.72;4816743;29;20101;-82
2024/03/26 23:06:21;;;;;;;5.60;0.40;;;;;;;6.68;100.00;96356.44;4821146;29;20034;-91
2024/03/26 23:08:49;;;;;;;4.60;0.63;;;;;;;6.62;100.00;96335.53;4823618;29;20041;-86